Time;durP1;ratioP1;P1;durP2;ratioP2;P2;SDS_P1;SDS_P2;PMS_P1;PMS_P2;Temp;Humidity;BMP_temperature;BMP_pressure;BME280_temperature;BME280_humidity;BME280_pressure;Samples;Min_cycle;Max_cycle;Signal;HPM_P1;HPM_P2
2023/01/31 00:01:05;;;;;;;3.33;1.38;;;3.70;99.90;;;;;;5005739;28;20229;-68
2023/01/31 00:03:32;;;;;;;1.08;0.65;;;2.60;99.90;;;;;;4992693;28;20188;-69
2023/01/31 00:06:08;;;;;;;2.40;1.08;;;2.60;99.90;;;;;;5005225;28;20229;-70
2023/01/31 00:08:36;;;;;;;4.00;1.02;;;2.60;99.90;;;;;;4997415;28;20195;-68
2023/01/31 00:11:03;;;;;;;0.30;0.28;;;2.60;99.90;;;;;;5005441;28;20232;-68
2023/01/31 00:13:30;;;;;;;0.40;0.40;;;2.50;99.90;;;;;;5005291;28;20198;-68
2023/01/31 00:15:57;;;;;;;0.50;0.50;;;2.50;99.90;;;;;;5005465;28;20221;-68
2023/01/31 00:18:23;;;;;;;0.50;0.50;;;2.50;99.90;;;;;;4997842;28;20833;-69
2023/01/31 00:20:50;;;;;;;1.25;0.82;;;2.50;99.90;;;;;;5004894;28;21062;-69
2023/01/31 00:23:17;;;;;;;1.75;0.50;;;2.40;99.90;;;;;;5005409;28;20200;-68
2023/01/31 00:25:45;;;;;;;1.25;0.70;;;4.20;99.90;;;;;;5005326;28;20232;-69
2023/01/31 00:28:12;;;;;;;0.93;0.93;;;2.30;99.90;;;;;;4997998;28;20240;-68
2023/01/31 00:30:39;;;;;;;3.78;0.50;;;2.30;99.90;;;;;;5005621;28;20233;-68
2023/01/31 00:33:05;;;;;;;0.88;0.88;;;2.30;99.90;;;;;;5003343;28;20206;-69
2023/01/31 00:35:32;;;;;;;0.50;0.50;;;2.20;99.90;;;;;;4996142;28;20225;-69
2023/01/31 00:37:59;;;;;;;0.63;0.63;;;2.20;99.90;;;;;;5099304;27;20193;-70
2023/01/31 00:40:26;;;;;;;0.50;0.50;;;2.10;99.90;;;;;;5124010;27;20273;-68
2023/01/31 00:42:54;;;;;;;0.30;0.30;;;2.00;99.90;;;;;;5128464;27;20281;-69
2023/01/31 00:45:21;;;;;;;0.70;0.70;;;2.00;99.90;;;;;;5128178;27;20198;-69
2023/01/31 00:47:48;;;;;;;0.40;0.40;;;1.90;99.90;;;;;;5128049;27;20216;-68
2023/01/31 00:50:15;;;;;;;1.65;0.95;;;1.90;99.90;;;;;;5127943;27;20305;-69
2023/01/31 00:52:42;;;;;;;0.40;0.40;;;1.90;99.90;;;;;;5128272;27;20200;-69
2023/01/31 00:55:09;;;;;;;1.20;0.98;;;1.90;99.90;;;;;;5128149;27;20568;-69
2023/01/31 00:57:36;;;;;;;0.40;0.40;;;1.80;99.90;;;;;;5128495;27;20186;-68
2023/01/31 01:00:05;;;;;;;0.30;0.30;;;1.80;99.90;;;;;;5128312;27;20211;-69
2023/01/31 01:02:32;;;;;;;1.63;0.60;;;1.80;99.90;;;;;;5127579;27;20279;-68
2023/01/31 01:04:59;;;;;;;0.43;0.43;;;1.80;99.90;;;;;;5128309;28;20197;-70
2023/01/31 01:07:26;;;;;;;0.70;0.50;;;1.80;99.90;;;;;;5127806;28;20260;-68
2023/01/31 01:09:53;;;;;;;1.60;0.35;;;1.70;99.90;;;;;;5128788;28;20208;-68
2023/01/31 01:12:20;;;;;;;1.20;0.95;;;1.70;99.90;;;;;;5127211;28;20686;-68
2023/01/31 01:14:47;;;;;;;3.13;1.40;;;1.70;99.90;;;;;;5123451;28;20194;-68
2023/01/31 01:17:15;;;;;;;1.20;0.80;;;1.60;99.90;;;;;;5108269;28;20218;-68
2023/01/31 01:19:41;;;;;;;1.20;0.73;;;1.70;99.90;;;;;;5126052;28;20201;-69
2023/01/31 01:22:08;;;;;;;1.05;0.82;;;1.60;99.90;;;;;;5128116;28;20217;-69
2023/01/31 01:24:35;;;;;;;0.30;0.30;;;1.70;99.90;;;;;;5130540;27;20193;-69
2023/01/31 01:27:03;;;;;;;0.70;0.70;;;1.70;99.90;;;;;;5132051;27;20625;-68
2023/01/31 01:29:30;;;;;;;0.40;0.40;;;1.60;99.90;;;;;;5131742;27;20193;-69
2023/01/31 01:31:57;;;;;;;1.15;1.15;;;1.60;99.90;;;;;;5131961;27;20721;-69
2023/01/31 01:34:25;;;;;;;1.05;0.50;;;1.60;99.90;;;;;;5132170;27;20189;-69
2023/01/31 01:36:52;;;;;;;0.82;0.75;;;1.50;99.90;;;;;;5131616;27;20229;-69
2023/01/31 01:39:19;;;;;;;0.50;0.50;;;1.50;99.90;;;;;;5120281;27;20196;-69
2023/01/31 01:41:46;;;;;;;0.63;0.50;;;1.60;99.90;;;;;;5131849;27;20229;-69
2023/01/31 01:44:49;;;;;;;2.15;0.93;;;1.70;99.90;;;;;;5131225;27;20796;-69
2023/01/31 01:47:22;;;;;;;0.85;0.82;;;1.60;99.90;;;;;;5131463;27;20232;-69
2023/01/31 01:49:54;;;;;;;0.65;0.63;;;1.60;99.90;;;;;;5131627;27;20687;-69
2023/01/31 01:52:22;;;;;;;0.82;0.60;;;1.60;99.90;;;;;;5131618;27;20320;-68
2023/01/31 01:54:54;;;;;;;1.15;0.80;;;1.60;99.90;;;;;;5131802;27;20201;-68
2023/01/31 01:57:25;;;;;;;1.25;1.15;;;1.60;99.90;;;;;;5131963;27;20224;-68
2023/01/31 02:00:00;;;;;;;1.20;0.82;;;1.50;99.90;;;;;;5117492;27;20201;-69
2023/01/31 02:02:27;;;;;;;1.13;1.13;;;1.50;99.90;;;;;;5130953;27;20711;-69
2023/01/31 02:04:55;;;;;;;0.60;0.50;;;1.50;99.90;;;;;;5129697;27;20850;-69
2023/01/31 02:07:22;;;;;;;1.15;0.68;;;1.50;99.90;;;;;;5130625;27;20243;-68
2023/01/31 02:09:56;;;;;;;1.77;1.05;;;1.50;99.90;;;;;;5131400;27;20667;-69
2023/01/31 02:12:24;;;;;;;0.88;0.75;;;1.50;99.90;;;;;;5131006;27;20728;-69
2023/01/31 02:14:52;;;;;;;2.15;1.10;;;1.50;99.90;;;;;;5131816;27;20190;-68
2023/01/31 02:17:20;;;;;;;0.88;0.40;;;1.60;99.90;;;;;;5130547;27;20217;-69
2023/01/31 02:20:06;;;;;;;0.65;0.65;;;1.60;99.90;;;;;;5130937;27;20626;-69
2023/01/31 02:22:39;;;;;;;1.15;1.15;;;1.50;99.90;;;;;;5131470;27;20201;-69
2023/01/31 02:25:39;;;;;;;1.15;0.88;;;1.50;99.90;;;;;;5131506;27;20206;-68
2023/01/31 02:28:27;;;;;;;5.28;0.77;;;1.50;99.90;;;;;;5129309;27;20219;-68
2023/01/31 02:31:22;;;;;;;0.40;0.40;;;1.40;99.90;;;;;;5130771;27;20216;-69
2023/01/31 02:33:54;;;;;;;2.47;1.25;;;1.40;99.90;;;;;;5131099;27;20201;-69
2023/01/31 02:36:33;;;;;;;1.20;0.60;;;1.30;99.90;;;;;;5130021;27;20217;-68
2023/01/31 02:39:13;;;;;;;2.20;1.25;;;1.30;99.90;;;;;;5117456;27;20286;-68
2023/01/31 02:41:49;;;;;;;0.50;0.50;;;1.30;99.90;;;;;;5116683;27;20221;-69
2023/01/31 02:47:20;;;;;;;0.30;0.30;;;1.20;99.90;;;;;;5130082;27;20294;-69
2023/01/31 02:49:56;;;;;;;1.33;1.25;;;1.20;99.90;;;;;;5130220;27;20675;-68
2023/01/31 02:52:32;;;;;;;0.43;0.43;;;1.20;99.90;;;;;;5130246;27;20255;-69
2023/01/31 02:57:55;;;;;;;1.27;1.15;;;1.10;99.90;;;;;;5130295;27;20288;-68
2023/01/31 03:00:24;;;;;;;0.50;0.30;;;1.10;99.90;;;;;;5130100;27;20204;-69
2023/01/31 03:02:52;;;;;;;0.40;0.40;;;1.10;99.90;;;;;;5130354;27;20216;-69
2023/01/31 03:05:20;;;;;;;1.25;1.15;;;1.10;99.90;;;;;;5129465;27;20190;-69
2023/01/31 03:07:50;;;;;;;2.15;1.48;;;1.10;99.90;;;;;;5129324;27;20213;-68
2023/01/31 03:10:31;;;;;;;0.80;0.80;;;1.10;99.90;;;;;;5129761;27;20225;-68
2023/01/31 03:13:11;;;;;;;0.45;0.45;;;1.20;99.90;;;;;;5130305;27;20283;-68
2023/01/31 03:18:49;;;;;;;2.03;1.13;;;1.10;99.90;;;;;;5110961;27;20589;-69
2023/01/31 03:21:21;;;;;;;0.63;0.63;;;1.10;99.90;;;;;;5109324;28;20688;-68
2023/01/31 03:23:53;;;;;;;0.75;0.75;;;1.10;99.90;;;;;;5109628;28;20251;-69
2023/01/31 03:26:22;;;;;;;0.30;0.20;;;1.10;99.90;;;;;;5108865;28;20234;-69
2023/01/31 03:28:55;;;;;;;0.60;0.60;;;1.20;99.90;;;;;;5120960;27;20221;-68
2023/01/31 03:31:28;;;;;;;1.35;0.75;;;1.20;99.90;;;;;;5113393;27;20700;-69
2023/01/31 03:33:59;;;;;;;0.75;0.43;;;1.20;99.90;;;;;;5129557;27;20243;-69
2023/01/31 03:36:34;;;;;;;0.50;0.45;;;1.20;99.90;;;;;;5129159;27;20256;-69
2023/01/31 03:39:14;;;;;;;0.35;0.35;;;1.20;99.90;;;;;;5122646;27;20201;-69
2023/01/31 03:41:52;;;;;;;0.82;0.80;;;1.30;99.90;;;;;;5111451;27;20232;-69
2023/01/31 03:44:29;;;;;;;0.40;0.40;;;1.30;99.90;;;;;;5129348;27;20227;-68
2023/01/31 03:47:03;;;;;;;5.50;1.27;;;1.50;99.90;;;;;;5129061;27;20257;-69
2023/01/31 03:49:33;;;;;;;0.40;0.40;;;1.30;99.90;;;;;;5110377;27;20316;-68
2023/01/31 03:52:06;;;;;;;2.88;1.73;;;1.10;99.90;;;;;;5110229;27;20308;-69
2023/01/31 03:54:37;;;;;;;1.05;0.75;;;1.40;99.90;;;;;;5129815;27;20201;-69
2023/01/31 03:57:12;;;;;;;0.65;0.50;;;1.40;99.90;;;;;;5128729;27;20286;-69
2023/01/31 03:59:43;;;;;;;0.40;0.40;;;1.30;99.90;;;;;;5128480;27;20232;-69
2023/01/31 04:02:13;;;;;;;0.77;0.65;;;1.40;99.90;;;;;;5128535;27;20220;-68
2023/01/31 04:04:47;;;;;;;1.73;1.25;;;3.20;99.90;;;;;;5129570;27;20284;-69
2023/01/31 04:07:17;;;;;;;9.05;1.42;;;1.30;99.90;;;;;;5128821;27;20702;-69
2023/01/31 04:09:45;;;;;;;0.80;0.75;;;1.20;99.90;;;;;;5128821;27;20220;-69
2023/01/31 04:12:13;;;;;;;0.45;0.40;;;1.70;99.90;;;;;;5128295;27;20248;-69
2023/01/31 04:14:40;;;;;;;0.65;0.52;;;1.20;99.90;;;;;;5128732;27;20208;-69
2023/01/31 04:17:07;;;;;;;1.25;0.57;;;1.20;99.90;;;;;;5128274;27;20796;-68
2023/01/31 04:19:34;;;;;;;0.50;0.50;;;1.20;99.90;;;;;;5128420;27;20198;-69
2023/01/31 04:22:00;;;;;;;2.67;0.63;;;1.20;99.90;;;;;;5128367;27;20282;-69
2023/01/31 04:24:29;;;;;;;0.65;0.65;;;1.00;99.90;;;;;;5128660;27;20193;-69
2023/01/31 04:26:55;;;;;;;0.65;0.65;;;1.00;99.90;;;;;;5127697;27;20297;-68
2023/01/31 04:29:22;;;;;;;0.30;0.30;;;1.00;99.90;;;;;;5128121;27;20225;-69
2023/01/31 04:31:49;;;;;;;1.60;1.25;;;1.00;99.90;;;;;;5128344;27;20647;-69
2023/01/31 04:34:16;;;;;;;1.60;1.00;;;1.00;99.90;;;;;;5128724;27;20242;-68
2023/01/31 04:36:43;;;;;;;1.00;1.00;;;1.00;99.90;;;;;;5126991;27;20233;-69
2023/01/31 04:39:12;;;;;;;2.15;0.70;;;0.90;99.90;;;;;;5122493;27;20224;-69
2023/01/31 04:41:40;;;;;;;0.40;0.40;;;0.90;99.90;;;;;;5126912;27;20328;-69
2023/01/31 04:44:07;;;;;;;3.33;1.58;;;1.00;99.90;;;;;;5110533;27;20204;-69
2023/01/31 04:46:34;;;;;;;2.17;1.25;;;0.90;99.90;;;;;;5113955;27;20270;-68
2023/01/31 04:49:01;;;;;;;0.40;0.40;;;0.90;99.90;;;;;;5114165;27;20225;-68
2023/01/31 04:51:27;;;;;;;1.52;1.42;;;0.90;99.90;;;;;;5107023;28;20229;-69
2023/01/31 04:53:54;;;;;;;1.15;1.10;;;0.90;99.90;;;;;;5106952;28;20190;-69
2023/01/31 04:56:21;;;;;;;2.78;1.23;;;0.80;99.90;;;;;;5107240;27;20224;-69
2023/01/31 04:58:49;;;;;;;1.10;0.65;;;0.90;99.90;;;;;;5118822;27;20205;-69
2023/01/31 05:01:16;;;;;;;1.15;1.13;;;1.00;99.90;;;;;;5109989;28;20684;-68
2023/01/31 05:03:42;;;;;;;1.35;1.10;;;0.90;99.90;;;;;;5107624;28;20196;-69
2023/01/31 05:06:10;;;;;;;3.60;1.55;;;1.10;99.90;;;;;;5106847;28;20321;-69
2023/01/31 05:08:36;;;;;;;1.20;0.82;;;1.00;99.90;;;;;;5115360;28;20236;-69
2023/01/31 05:11:05;;;;;;;1.48;1.38;;;1.00;99.90;;;;;;5106909;28;20221;-69
2023/01/31 05:13:33;;;;;;;0.57;0.57;;;1.00;99.90;;;;;;5107229;28;20528;-68
2023/01/31 05:16:01;;;;;;;1.95;1.27;;;1.00;99.90;;;;;;5106897;28;20234;-70
2023/01/31 05:18:28;;;;;;;0.65;0.57;;;1.10;99.90;;;;;;5116042;28;20197;-68
2023/01/31 05:20:54;;;;;;;0.40;0.40;;;1.00;99.90;;;;;;5126906;28;20316;-69
2023/01/31 05:23:21;;;;;;;0.65;0.65;;;0.90;99.90;;;;;;5127235;28;20189;-68
2023/01/31 05:25:50;;;;;;;2.63;1.27;;;1.00;99.90;;;;;;5126845;28;20691;-68
2023/01/31 05:28:17;;;;;;;0.30;0.30;;;1.00;99.90;;;;;;5120065;28;20225;-69
2023/01/31 05:30:44;;;;;;;0.47;0.45;;;1.10;99.90;;;;;;5107528;28;20316;-69
2023/01/31 05:33:12;;;;;;;0.50;0.50;;;1.10;99.90;;;;;;5106332;28;20208;-69
2023/01/31 05:35:41;;;;;;;0.68;0.63;;;1.30;99.90;;;;;;5106625;28;20583;-69
2023/01/31 05:38:08;;;;;;;0.30;0.30;;;1.10;99.90;;;;;;5113034;28;20675;-69
2023/01/31 05:40:34;;;;;;;1.20;1.17;;;1.10;99.90;;;;;;5110987;28;20218;-68
2023/01/31 05:43:01;;;;;;;1.23;1.02;;;1.10;99.90;;;;;;5127104;28;20206;-69
2023/01/31 05:45:28;;;;;;;0.50;0.50;;;1.10;99.90;;;;;;5127229;28;20231;-69
2023/01/31 05:47:56;;;;;;;1.27;1.20;;;1.10;99.90;;;;;;5114502;28;20193;-68
2023/01/31 05:50:25;;;;;;;1.58;1.27;;;1.20;99.90;;;;;;5116429;28;21290;-68
2023/01/31 05:52:52;;;;;;;1.20;1.13;;;1.10;99.90;;;;;;5121365;28;20208;-69
2023/01/31 05:55:19;;;;;;;0.68;0.68;;;1.10;99.90;;;;;;5116138;28;20197;-68
2023/01/31 05:57:46;;;;;;;0.60;0.60;;;1.30;99.90;;;;;;5108207;28;20208;-69
2023/01/31 06:00:14;;;;;;;4.70;2.60;;;1.00;99.90;;;;;;5106444;28;20736;-69
2023/01/31 06:02:41;;;;;;;0.82;0.82;;;1.00;99.90;;;;;;5106861;28;20202;-69
2023/01/31 06:05:09;;;;;;;0.75;0.75;;;0.80;99.90;;;;;;5107038;28;20201;-69
2023/01/31 06:07:38;;;;;;;0.55;0.55;;;0.80;99.90;;;;;;5118699;28;20226;-69
2023/01/31 06:10:06;;;;;;;0.80;0.70;;;0.80;99.90;;;;;;5108609;28;20238;-70
2023/01/31 06:12:34;;;;;;;0.68;0.68;;;0.70;99.90;;;;;;5122199;27;20507;-70
2023/01/31 06:15:01;;;;;;;5.65;1.15;;;0.70;99.90;;;;;;5131201;27;20743;-69
2023/01/31 06:17:27;;;;;;;2.72;0.90;;;0.70;99.90;;;;;;5130943;27;20217;-70
2023/01/31 06:20:08;;;;;;;0.73;0.73;;;0.70;99.90;;;;;;5131050;27;20201;-72
2023/01/31 06:22:37;;;;;;;0.70;0.70;;;0.60;99.90;;;;;;5131157;27;20280;-70
2023/01/31 06:25:17;;;;;;;1.75;1.15;;;0.60;99.90;;;;;;5120941;27;20656;-72
2023/01/31 06:27:44;;;;;;;0.98;0.93;;;0.60;99.90;;;;;;5120675;27;20193;-69
2023/01/31 06:30:12;;;;;;;0.47;0.47;;;1.10;99.90;;;;;;5120396;27;20218;-70
2023/01/31 06:32:39;;;;;;;0.55;0.55;;;0.50;99.90;;;;;;5117329;27;20213;-68
2023/01/31 06:35:06;;;;;;;1.35;1.25;;;0.60;99.90;;;;;;5120199;27;20227;-68
2023/01/31 06:37:33;;;;;;;0.73;0.73;;;0.60;99.90;;;;;;5119261;27;20190;-69
2023/01/31 06:40:01;;;;;;;0.50;0.50;;;0.40;99.90;;;;;;5118160;27;20201;-69
2023/01/31 06:42:28;;;;;;;1.05;1.02;;;0.50;99.90;;;;;;5116063;27;20217;-67
2023/01/31 06:44:55;;;;;;;1.67;1.58;;;0.50;99.90;;;;;;5109279;27;20213;-67
2023/01/31 06:47:22;;;;;;;0.50;0.50;;;0.50;99.90;;;;;;5117861;27;20248;-67
2023/01/31 06:49:48;;;;;;;1.00;0.98;;;0.50;99.90;;;;;;5128554;27;20213;-67
2023/01/31 06:52:15;;;;;;;0.77;0.77;;;0.50;99.90;;;;;;5129636;27;20221;-67
2023/01/31 06:54:42;;;;;;;1.48;0.55;;;0.40;99.90;;;;;;5128866;27;20190;-67
2023/01/31 06:57:10;;;;;;;1.77;1.65;;;0.50;99.90;;;;;;5130068;27;20312;-67
2023/01/31 06:59:37;;;;;;;0.95;0.95;;;0.50;99.90;;;;;;5129633;27;20201;-67
2023/01/31 07:02:04;;;;;;;0.95;0.95;;;0.60;99.90;;;;;;5130279;27;20232;-67
2023/01/31 07:04:30;;;;;;;0.55;0.55;;;0.60;99.90;;;;;;5130619;27;20201;-67
2023/01/31 07:06:57;;;;;;;0.50;0.50;;;0.50;99.90;;;;;;5129196;27;20232;-68
2023/01/31 07:09:24;;;;;;;1.52;0.50;;;;;;;;;;5124938;27;20227;-68
2023/01/31 07:11:51;;;;;;;1.30;0.70;;;0.40;99.90;;;;;;5113167;27;20224;-67
2023/01/31 07:14:19;;;;;;;0.77;0.77;;;0.60;99.90;;;;;;5121728;27;20197;-67
2023/01/31 07:16:46;;;;;;;1.83;1.13;;;0.50;99.90;;;;;;5129022;27;20597;-69
2023/01/31 07:19:13;;;;;;;0.30;0.30;;;0.60;99.90;;;;;;5117183;27;20208;-68
2023/01/31 07:21:39;;;;;;;0.68;0.68;;;0.80;99.90;;;;;;5106875;28;20241;-67
2023/01/31 07:24:07;;;;;;;1.02;1.02;;;0.50;99.90;;;;;;5109429;28;20214;-67
2023/01/31 07:26:34;;;;;;;3.95;1.67;;;0.50;99.90;;;;;;5111066;27;20221;-67
2023/01/31 07:29:01;;;;;;;0.73;0.73;;;0.40;99.90;;;;;;5128725;27;20216;-67
2023/01/31 07:31:29;;;;;;;0.82;0.82;;;0.60;99.90;;;;;;5128983;27;20227;-68
2023/01/31 07:33:56;;;;;;;0.40;0.40;;;0.50;99.90;;;;;;5129925;27;20205;-67
2023/01/31 07:36:25;;;;;;;0.70;0.70;;;0.60;99.90;;;;;;5128261;27;20255;-67
2023/01/31 07:38:54;;;;;;;1.58;1.08;;;1.10;99.90;;;;;;5120300;27;20225;-67
2023/01/31 07:41:21;;;;;;;0.30;0.30;;;0.60;99.90;;;;;;5129048;27;20225;-67
2023/01/31 07:43:47;;;;;;;0.50;0.50;;;0.70;99.90;;;;;;5124335;27;20571;-67
2023/01/31 07:46:14;;;;;;;1.30;1.20;;;0.10;99.90;;;;;;5108806;28;20232;-67
2023/01/31 07:48:43;;;;;;;1.35;1.23;;;0.70;99.90;;;;;;5118903;27;20200;-67
2023/01/31 07:51:10;;;;;;;0.40;0.40;;;0.80;99.90;;;;;;5108807;28;20649;-67
2023/01/31 07:53:40;;;;;;;1.60;1.50;;;0.80;99.90;;;;;;5108844;28;20207;-67
2023/01/31 07:56:10;;;;;;;0.98;0.88;;;1.50;99.90;;;;;;5112294;27;20217;-67
2023/01/31 07:58:37;;;;;;;0.55;0.55;;;1.00;99.90;;;;;;5118566;27;20464;-67
2023/01/31 08:03:50;;;;;;;0.52;0.52;;;1.00;99.90;;;;;;5128719;27;20205;-67
2023/01/31 08:06:18;;;;;;;2.85;0.60;;;1.10;99.90;;;;;;5128900;27;20228;-67
2023/01/31 08:08:45;;;;;;;2.33;1.27;;;1.60;99.90;;;;;;5128093;27;20564;-67
2023/01/31 08:11:12;;;;;;;0.93;0.50;;;1.30;99.90;;;;;;5127806;27;20225;-68
2023/01/31 08:13:39;;;;;;;0.30;0.30;;;1.20;99.90;;;;;;5128656;27;20202;-67
2023/01/31 08:16:09;;;;;;;1.10;0.50;;;1.20;99.90;;;;;;5128719;27;20225;-67
2023/01/31 08:18:36;;;;;;;0.30;0.20;;;1.60;99.90;;;;;;5125975;27;20249;-66
2023/01/31 08:21:05;;;;;;;0.40;0.40;;;1.30;99.90;;;;;;5127788;27;20229;-67
2023/01/31 08:23:31;;;;;;;0.40;0.40;;;1.50;99.90;;;;;;5128462;27;20197;-67
2023/01/31 08:26:03;;;;;;;1.20;1.13;;;1.50;99.90;;;;;;5128394;27;20231;-68
2023/01/31 08:28:30;;;;;;;0.80;0.70;;;1.80;99.90;;;;;;5124957;27;20193;-69
2023/01/31 08:30:57;;;;;;;1.27;1.10;;;1.80;99.90;;;;;;5127453;27;20229;-69
2023/01/31 08:33:24;;;;;;;1.75;0.75;;;1.80;99.90;;;;;;5128064;27;20555;-67
2023/01/31 08:35:51;;;;;;;0.70;0.70;;;2.00;99.90;;;;;;5128660;27;20699;-67
2023/01/31 08:38:19;;;;;;;0.95;0.80;;;2.10;99.90;;;;;;5124211;27;20227;-68
2023/01/31 08:40:46;;;;;;;1.85;0.95;;;2.10;99.90;;;;;;5121314;27;20240;-69
2023/01/31 08:43:13;;;;;;;0.85;0.85;;;2.30;99.90;;;;;;5107879;28;20758;-68
2023/01/31 08:45:41;;;;;;;0.30;0.30;;;2.30;99.90;;;;;;5126473;27;20323;-69
2023/01/31 08:48:07;;;;;;;0.50;0.50;;;2.70;99.90;;;;;;5127310;27;20277;-68
2023/01/31 08:50:35;;;;;;;0.80;0.80;;;;;;;;;;5127648;27;20533;-68
2023/01/31 08:53:04;;;;;;;0.55;0.55;;;2.60;99.90;;;;;;5128408;27;20194;-68
2023/01/31 08:55:35;;;;;;;0.70;0.70;;;2.40;99.90;;;;;;5123834;27;20312;-68
2023/01/31 08:58:02;;;;;;;0.35;0.35;;;2.50;99.90;;;;;;5107787;28;20296;-68
2023/01/31 09:00:30;;;;;;;0.82;0.70;;;2.60;99.90;;;;;;5109938;28;20313;-68
2023/01/31 09:02:58;;;;;;;0.40;0.40;;;2.70;99.90;;;;;;5127866;27;20545;-68
2023/01/31 09:05:25;;;;;;;1.92;1.67;;;2.80;99.90;;;;;;5128439;27;20229;-68
2023/01/31 09:07:52;;;;;;;1.38;1.27;;;2.90;99.90;;;;;;5116082;28;20675;-68
2023/01/31 09:10:20;;;;;;;0.30;0.20;;;2.90;99.90;;;;;;5127612;28;20239;-69
2023/01/31 09:12:48;;;;;;;1.23;0.90;;;3.10;99.90;;;;;;5127997;28;20670;-68
2023/01/31 09:15:15;;;;;;;0.80;0.80;;;3.20;99.90;;;;;;5128505;28;20573;-68
2023/01/31 09:17:42;;;;;;;0.70;0.50;;;3.50;99.90;;;;;;5127177;28;20312;-68
2023/01/31 09:20:10;;;;;;;1.17;1.08;;;3.40;99.90;;;;;;5127648;28;20197;-69
2023/01/31 09:22:37;;;;;;;1.40;1.30;;;3.10;99.90;;;;;;5126289;28;20231;-69
2023/01/31 09:25:05;;;;;;;0.80;0.80;;;3.40;99.90;;;;;;5126478;28;20273;-70
2023/01/31 09:27:32;;;;;;;0.40;0.30;;;3.60;99.90;;;;;;5121899;28;20660;-69
2023/01/31 09:30:00;;;;;;;1.10;1.05;;;3.40;99.90;;;;;;5107233;28;20586;-68
2023/01/31 09:32:28;;;;;;;4.03;1.35;;;3.40;99.90;;;;;;5108044;28;20221;-69
2023/01/31 09:34:56;;;;;;;1.00;0.50;;;;;;;;;;5127580;28;20205;-69
2023/01/31 09:37:22;;;;;;;2.03;0.60;;;3.50;99.90;;;;;;5120846;28;20229;-68
2023/01/31 09:39:49;;;;;;;0.70;0.70;;;3.60;99.50;;;;;;5123176;28;20215;-68
2023/01/31 09:42:22;;;;;;;0.45;0.40;;;3.60;98.70;;;;;;5110775;28;20230;-69
2023/01/31 09:44:58;;;;;;;0.85;0.50;;;3.70;98.90;;;;;;5115639;28;20198;-68
2023/01/31 09:47:29;;;;;;;0.88;0.88;;;3.70;99.00;;;;;;5110989;28;20225;-70
2023/01/31 09:50:01;;;;;;;1.40;0.52;;;3.70;98.80;;;;;;5125509;27;20328;-67
2023/01/31 09:52:30;;;;;;;1.30;0.85;;;3.80;98.70;;;;;;5131877;27;20228;-68
2023/01/31 09:54:57;;;;;;;0.43;0.40;;;3.90;99.90;;;;;;5131932;27;20195;-68
2023/01/31 09:57:32;;;;;;;0.40;0.40;;;3.80;98.90;;;;;;5131322;27;20217;-69
2023/01/31 10:00:11;;;;;;;0.57;0.57;;;3.90;98.70;;;;;;5131050;27;20203;-69
2023/01/31 10:03:09;;;;;;;0.88;0.88;;;3.90;98.30;;;;;;5130912;27;20258;-68
2023/01/31 10:05:45;;;;;;;0.40;0.40;;;3.80;98.20;;;;;;5128648;27;20233;-67
2023/01/31 10:08:18;;;;;;;0.55;0.43;;;3.80;98.50;;;;;;5130419;27;20205;-68
2023/01/31 10:10:50;;;;;;;0.30;0.30;;;3.90;98.40;;;;;;5131688;27;20580;-68
2023/01/31 10:13:21;;;;;;;1.40;1.13;;;3.90;98.30;;;;;;5131342;27;20197;-69
2023/01/31 10:15:51;;;;;;;2.17;2.08;;;3.90;98.20;;;;;;5131381;27;20217;-68
2023/01/31 10:18:25;;;;;;;1.13;1.02;;;4.00;97.90;;;;;;5122860;27;20201;-69
2023/01/31 10:20:55;;;;;;;2.50;2.30;;;3.80;97.90;;;;;;5121185;27;20393;-68
2023/01/31 10:23:27;;;;;;;3.53;0.82;;;3.80;97.80;;;;;;5131187;27;20281;-68
2023/01/31 10:25:59;;;;;;;1.13;0.85;;;4.00;98.00;;;;;;5131184;27;20217;-69
2023/01/31 10:28:31;;;;;;;2.42;1.10;;;4.00;97.50;;;;;;5130865;27;20208;-68
2023/01/31 10:31:02;;;;;;;0.40;0.40;;;4.00;97.30;;;;;;5131461;27;20575;-68
2023/01/31 10:33:38;;;;;;;0.85;0.63;;;4.00;97.20;;;;;;5130894;27;20538;-68
2023/01/31 10:36:12;;;;;;;0.85;0.85;;;3.90;97.40;;;;;;5130694;27;20328;-70
2023/01/31 10:38:54;;;;;;;1.50;1.05;;;3.90;97.30;;;;;;5129418;27;20208;-68
2023/01/31 10:41:27;;;;;;;1.98;1.15;;;4.10;97.60;;;;;;5128259;27;20240;-68
2023/01/31 10:44:00;;;;;;;4.43;0.50;;;4.00;99.90;;;;;;5128289;27;20651;-68
2023/01/31 10:46:27;;;;;;;0.32;0.32;;;4.20;97.40;;;;;;5130623;27;20267;-68
2023/01/31 10:48:55;;;;;;;1.23;0.63;;;4.20;97.30;;;;;;5128780;27;20202;-68
2023/01/31 10:51:38;;;;;;;0.85;0.40;;;4.10;97.00;;;;;;5130774;27;20638;-69
2023/01/31 10:54:22;;;;;;;0.43;0.40;;;4.20;97.50;;;;;;5123591;27;20200;-68
2023/01/31 10:56:49;;;;;;;0.52;0.40;;;4.30;97.20;;;;;;5108951;28;20588;-68
2023/01/31 10:59:24;;;;;;;6.28;2.30;;;4.20;96.90;;;;;;5109836;28;20709;-68
2023/01/31 11:01:51;;;;;;;0.50;0.50;;;4.20;96.80;;;;;;5110738;28;20213;-69
2023/01/31 11:04:25;;;;;;;1.42;0.88;;;4.20;97.10;;;;;;5118502;27;20197;-68
2023/01/31 11:06:53;;;;;;;2.10;1.25;;;4.30;97.20;;;;;;5109731;28;20323;-69
2023/01/31 11:09:23;;;;;;;1.50;1.40;;;4.30;96.70;;;;;;5109487;28;20190;-68
2023/01/31 11:11:56;;;;;;;0.90;0.65;;;4.40;97.10;;;;;;5125750;27;20244;-68
2023/01/31 11:14:23;;;;;;;1.40;1.30;;;4.50;97.00;;;;;;5130634;27;20254;-68
2023/01/31 11:16:56;;;;;;;0.30;0.20;;;4.70;97.00;;;;;;5127375;27;20221;-69
2023/01/31 11:19:30;;;;;;;1.30;0.50;;;4.70;96.50;;;;;;5128115;27;20207;-69
2023/01/31 11:21:56;;;;;;;0.47;0.47;;;4.70;96.40;;;;;;5130343;27;20277;-68
2023/01/31 11:24:26;;;;;;;6.93;1.40;;;4.60;96.30;;;;;;5130383;27;20205;-68
2023/01/31 11:26:58;;;;;;;0.90;0.85;;;4.60;96.10;;;;;;5130128;27;20221;-68
2023/01/31 11:29:29;;;;;;;2.13;0.45;;;4.60;96.10;;;;;;5129154;27;20200;-68
2023/01/31 11:31:58;;;;;;;0.80;0.80;;;4.50;96.60;;;;;;5129781;27;20243;-68
2023/01/31 11:34:28;;;;;;;0.93;0.80;;;4.60;97.10;;;;;;5130497;27;20291;-67
2023/01/31 11:37:12;;;;;;;0.32;0.32;;;4.60;96.40;;;;;;5127308;27;20233;-68
2023/01/31 11:39:39;;;;;;;0.95;0.50;;;4.60;96.50;;;;;;5119431;27;20198;-68
2023/01/31 11:42:07;;;;;;;0.88;0.60;;;4.60;96.70;;;;;;5110553;27;20290;-68
2023/01/31 11:44:34;;;;;;;0.45;0.45;;;4.80;97.00;;;;;;5130083;27;20268;-69
2023/01/31 11:47:04;;;;;;;0.50;0.50;;;4.80;96.10;;;;;;5118633;27;20224;-68
2023/01/31 11:49:35;;;;;;;1.17;1.08;;;4.90;96.70;;;;;;5126430;27;20190;-68
2023/01/31 11:52:12;;;;;;;0.63;0.63;;;4.90;95.90;;;;;;5129394;27;20244;-69
2023/01/31 11:54:42;;;;;;;1.33;0.43;;;4.80;96.40;;;;;;5129180;27;20201;-68
2023/01/31 11:57:15;;;;;;;0.82;0.82;;;5.40;98.10;;;;;;5118706;27;20263;-69
2023/01/31 11:59:42;;;;;;;0.65;0.60;;;4.80;95.70;;;;;;5127636;27;20200;-68
2023/01/31 12:02:24;;;;;;;1.60;1.02;;;4.80;95.90;;;;;;5128227;27;20217;-68
2023/01/31 12:04:52;;;;;;;0.75;0.75;;;4.90;95.90;;;;;;5129431;27;20292;-69
2023/01/31 12:07:24;;;;;;;3.22;1.05;;;4.90;95.10;;;;;;5128269;27;20227;-68
2023/01/31 12:09:51;;;;;;;0.75;0.75;;;4.80;95.30;;;;;;5128854;27;20207;-69
2023/01/31 12:12:30;;;;;;;0.68;0.68;;;4.80;94.90;;;;;;5127190;27;20698;-68
2023/01/31 12:15:00;;;;;;;0.40;0.30;;;4.80;95.00;;;;;;5129198;27;20659;-68
2023/01/31 12:17:30;;;;;;;1.13;1.02;;;4.90;95.20;;;;;;5124528;27;20214;-69
2023/01/31 12:20:14;;;;;;;0.50;0.25;;;4.90;95.20;;;;;;5124948;27;20216;-68
2023/01/31 12:22:49;;;;;;;1.00;0.50;;;4.90;95.00;;;;;;5129156;27;20746;-68
2023/01/31 12:25:25;;;;;;;0.63;0.40;;;4.90;95.20;;;;;;5128982;27;20207;-68
2023/01/31 12:28:04;;;;;;;0.30;0.30;;;4.80;94.10;;;;;;5128421;27;20212;-68
2023/01/31 12:30:50;;;;;;;2.35;0.70;;;4.70;94.50;;;;;;5128964;27;20320;-68
2023/01/31 12:33:39;;;;;;;0.40;0.38;;;4.70;94.70;;;;;;5129009;27;20197;-69
2023/01/31 12:36:25;;;;;;;1.40;0.70;;;4.70;94.60;;;;;;5119809;27;20641;-69
2023/01/31 12:39:13;;;;;;;1.30;0.68;;;4.60;99.40;;;;;;5111413;27;20194;-68
2023/01/31 12:41:43;;;;;;;0.50;0.50;;;4.80;94.70;;;;;;5128199;27;20590;-68
2023/01/31 12:44:31;;;;;;;2.20;0.68;;;4.80;94.40;;;;;;5128660;27;20207;-68
2023/01/31 12:47:13;;;;;;;0.82;0.82;;;4.80;94.10;;;;;;5129149;27;20221;-69
2023/01/31 12:49:57;;;;;;;1.90;0.50;;;4.80;94.60;;;;;;5128608;27;20246;-68
2023/01/31 12:52:36;;;;;;;0.50;0.40;;;4.80;94.40;;;;;;5123898;27;20233;-68
2023/01/31 12:55:17;;;;;;;0.93;0.60;;;4.70;94.30;;;;;;5108815;28;20205;-68
2023/01/31 12:57:51;;;;;;;1.10;0.93;;;4.70;93.80;;;;;;5112889;27;20197;-70
2023/01/31 13:00:28;;;;;;;0.30;0.30;;;4.60;93.90;;;;;;5127476;27;20188;-68
2023/01/31 13:03:09;;;;;;;0.30;0.20;;;4.60;94.70;;;;;;5128792;27;20197;-68
2023/01/31 13:05:44;;;;;;;4.38;1.15;;;4.60;94.50;;;;;;5128020;27;20233;-68
2023/01/31 13:08:17;;;;;;;1.20;0.60;;;4.50;94.70;;;;;;5127865;27;20201;-68
2023/01/31 13:10:48;;;;;;;0.82;0.82;;;4.50;94.90;;;;;;5126423;28;20328;-68
2023/01/31 13:13:20;;;;;;;0.50;0.50;;;4.50;94.50;;;;;;5128252;28;20201;-68
2023/01/31 13:15:50;;;;;;;1.83;1.23;;;4.40;95.10;;;;;;5128350;28;20229;-69
2023/01/31 13:18:18;;;;;;;0.40;0.30;;;4.40;94.80;;;;;;5119989;28;20193;-67
2023/01/31 13:20:49;;;;;;;0.88;0.88;;;4.30;95.10;;;;;;5118416;27;20217;-68
2023/01/31 13:23:23;;;;;;;1.17;1.17;;;4.40;94.60;;;;;;5132525;27;20295;-68
2023/01/31 13:25:54;;;;;;;4.50;1.50;;;4.30;94.70;;;;;;5132567;27;20227;-68